Howe, Pennsylvania
Current Conditions -  °F | °C
As of 11:56 AM on Friday 19 Dec 2014 (Local Time) from KCXY Reporting Station
Broken Clouds Broken Clouds  
Wind Chill: 33°   Ceiling: 3800
Heat Index: 40°   Visibility: 10mi
Dew Point: 21°   Wind: 12mph
Humidity: 47%   Direction: 330°NNW
Pressure: 30.1"   Gusts: NA
Location:  40.4932°N, 77.217°W
Report Text: KCXY 191656Z 33010KT 10SM BKN038 04/M06 A3010 RMK AO2 SLP198 T00441061
Loading
Personal Weather Stations






























Interactive Weather Map New forecast layout! Learn more

10-Day Weather Forecast

Advertisements
Track Severe Weather on mobile